Terminal Aerodrome Forecast
Issued by NWS Sterling, VA

Current Version | Previous Version | Text Only | Print | Product List | Glossary Off
Versions: 1 2 3 4 5 6 7 8 9 10 11 12 13 14 15 16

000
FTUS41 KLWX 211857 AAA
TAFMRB
TAF AMD
KMRB 211857Z 2119/2218 12005KT 4SM BR SCT009 OVC020
      TEMPO 2119/2121 BKN009 OVC015
     FM220100 VRB03KT P6SM BKN035
     FM220900 31008KT P6SM SCT120
     FM221400 29013G22KT P6SM FEW060=

USA.gov is the U.S. government's official web portal to all federal, state and local government web resources and services.